sensor_id;sensor_type;location;lat;lon;timestamp;pressure;altitude;pressure_sealevel;temperature;humidity
20860;BME280;10590;48.154;11.514;2022-07-23T00:03:18;95718.44;;;23.53;61.31
20860;BME280;10590;48.154;11.514;2022-07-23T00:08:21;95716.09;;;23.51;60.66
20860;BME280;10590;48.154;11.514;2022-07-23T00:13:23;95692.16;;;23.45;58.97
20860;BME280;10590;48.154;11.514;2022-07-23T00:18:28;95686.63;;;23.52;58.61
20860;BME280;10590;48.154;11.514;2022-07-23T00:23:31;95711.38;;;23.52;58.20
20860;BME280;10590;48.154;11.514;2022-07-23T00:28:33;95739.34;;;23.40;59.50
20860;BME280;10590;48.154;11.514;2022-07-23T00:33:34;95718.16;;;23.37;58.84
20860;BME280;10590;48.154;11.514;2022-07-23T00:38:37;95730.38;;;23.32;58.94
20860;BME280;10590;48.154;11.514;2022-07-23T00:43:41;95740.97;;;23.30;58.86
20860;BME280;10590;48.154;11.514;2022-07-23T00:48:43;95746.53;;;23.23;59.35
20860;BME280;10590;48.154;11.514;2022-07-23T00:53:46;95750.41;;;23.29;59.46
20860;BME280;10590;48.154;11.514;2022-07-23T00:58:48;95753.59;;;23.20;59.78
20860;BME280;10590;48.154;11.514;2022-07-23T01:03:50;95786.59;;;23.20;59.60
20860;BME280;10590;48.154;11.514;2022-07-23T01:08:54;95832.56;;;23.13;60.58
20860;BME280;10590;48.154;11.514;2022-07-23T01:13:56;95861.19;;;23.19;60.30
20860;BME280;10590;48.154;11.514;2022-07-23T01:18:57;95894.53;;;23.28;60.42
20860;BME280;10590;48.154;11.514;2022-07-23T01:24:00;95938.94;;;23.12;58.84
20860;BME280;10590;48.154;11.514;2022-07-23T01:29:04;95985.47;;;21.80;62.76
20860;BME280;10590;48.154;11.514;2022-07-23T01:34:06;96024.78;;;19.99;69.21
20860;BME280;10590;48.154;11.514;2022-07-23T01:39:10;95998.00;;;19.78;70.56
20860;BME280;10590;48.154;11.514;2022-07-23T01:44:12;95918.25;;;19.09;81.24
20860;BME280;10590;48.154;11.514;2022-07-23T01:49:14;95887.53;;;18.09;98.67
20860;BME280;10590;48.154;11.514;2022-07-23T01:54:17;95896.63;;;17.94;100.00
20860;BME280;10590;48.154;11.514;2022-07-23T01:59:19;95873.06;;;17.82;100.00
20860;BME280;10590;48.154;11.514;2022-07-23T02:04:21;95881.50;;;17.97;100.00
20860;BME280;10590;48.154;11.514;2022-07-23T02:09:25;95887.28;;;17.95;100.00
20860;BME280;10590;48.154;11.514;2022-07-23T02:14:26;95904.72;;;17.90;100.00
20860;BME280;10590;48.154;11.514;2022-07-23T02:19:28;95880.50;;;17.85;100.00
20860;BME280;10590;48.154;11.514;2022-07-23T02:24:31;95867.84;;;17.97;100.00
20860;BME280;10590;48.154;11.514;2022-07-23T02:29:33;95823.78;;;18.18;100.00
20860;BME280;10590;48.154;11.514;2022-07-23T02:34:37;95798.50;;;18.21;100.00
20860;BME280;10590;48.154;11.514;2022-07-23T02:39:43;95816.53;;;18.02;100.00
20860;BME280;10590;48.154;11.514;2022-07-23T02:44:45;95816.72;;;17.90;100.00
20860;BME280;10590;48.154;11.514;2022-07-23T02:49:46;95821.19;;;18.02;100.00
20860;BME280;10590;48.154;11.514;2022-07-23T02:54:49;95837.75;;;17.89;100.00
20860;BME280;10590;48.154;11.514;2022-07-23T02:59:51;95884.28;;;17.77;100.00
20860;BME280;10590;48.154;11.514;2022-07-23T03:04:53;95937.03;;;17.69;100.00
20860;BME280;10590;48.154;11.514;2022-07-23T03:09:55;95911.34;;;17.70;100.00
20860;BME280;10590;48.154;11.514;2022-07-23T03:14:57;95910.56;;;17.89;100.00
20860;BME280;10590;48.154;11.514;2022-07-23T03:19:59;95893.13;;;17.94;100.00
20860;BME280;10590;48.154;11.514;2022-07-23T03:25:05;95889.16;;;17.91;100.00
20860;BME280;10590;48.154;11.514;2022-07-23T03:30:09;95878.81;;;17.77;100.00
20860;BME280;10590;48.154;11.514;2022-07-23T03:35:12;95813.34;;;17.31;100.00
20860;BME280;10590;48.154;11.514;2022-07-23T03:40:15;95769.41;;;17.56;100.00
20860;BME280;10590;48.154;11.514;2022-07-23T03:45:16;95785.66;;;17.95;100.00
20860;BME280;10590;48.154;11.514;2022-07-23T03:50:18;95810.91;;;17.91;100.00
20860;BME280;10590;48.154;11.514;2022-07-23T03:55:21;95821.41;;;17.89;100.00
20860;BME280;10590;48.154;11.514;2022-07-23T04:00:24;95801.59;;;17.93;100.00
20860;BME280;10590;48.154;11.514;2022-07-23T04:05:25;95803.88;;;17.90;100.00
20860;BME280;10590;48.154;11.514;2022-07-23T04:10:28;95801.75;;;18.03;100.00
20860;BME280;10590;48.154;11.514;2022-07-23T04:15:31;95792.94;;;18.13;100.00
20860;BME280;10590;48.154;11.514;2022-07-23T04:20:32;95789.75;;;18.08;100.00
20860;BME280;10590;48.154;11.514;2022-07-23T04:25:35;95771.31;;;17.75;100.00
20860;BME280;10590;48.154;11.514;2022-07-23T04:30:37;95763.00;;;17.90;100.00
20860;BME280;10590;48.154;11.514;2022-07-23T04:35:39;95757.88;;;18.12;100.00
20860;BME280;10590;48.154;11.514;2022-07-23T04:40:42;95762.56;;;18.15;100.00
20860;BME280;10590;48.154;11.514;2022-07-23T04:45:43;95761.63;;;18.30;100.00
20860;BME280;10590;48.154;11.514;2022-07-23T04:50:57;95769.03;;;18.30;100.00
20860;BME280;10590;48.154;11.514;2022-07-23T04:56:00;95754.97;;;18.28;100.00
20860;BME280;10590;48.154;11.514;2022-07-23T05:01:02;95751.09;;;18.59;100.00
20860;BME280;10590;48.154;11.514;2022-07-23T05:06:04;95768.81;;;18.72;100.00
20860;BME280;10590;48.154;11.514;2022-07-23T05:11:07;95755.19;;;18.72;100.00
20860;BME280;10590;48.154;11.514;2022-07-23T05:16:09;95745.34;;;18.68;100.00
20860;BME280;10590;48.154;11.514;2022-07-23T05:21:12;95756.56;;;18.62;100.00
20860;BME280;10590;48.154;11.514;2022-07-23T05:26:20;95761.81;;;18.71;100.00
20860;BME280;10590;48.154;11.514;2022-07-23T05:31:23;95767.50;;;18.62;100.00
20860;BME280;10590;48.154;11.514;2022-07-23T05:36:25;95769.13;;;18.67;100.00
20860;BME280;10590;48.154;11.514;2022-07-23T05:41:28;95759.13;;;18.75;100.00
20860;BME280;10590;48.154;11.514;2022-07-23T05:46:30;95776.91;;;18.95;100.00
20860;BME280;10590;48.154;11.514;2022-07-23T05:51:31;95800.16;;;18.85;100.00
20860;BME280;10590;48.154;11.514;2022-07-23T05:56:35;95807.88;;;18.76;100.00
20860;BME280;10590;48.154;11.514;2022-07-23T06:01:39;95819.75;;;18.91;100.00
20860;BME280;10590;48.154;11.514;2022-07-23T06:06:40;95812.38;;;18.95;100.00
20860;BME280;10590;48.154;11.514;2022-07-23T06:11:44;95801.66;;;18.79;100.00
20860;BME280;10590;48.154;11.514;2022-07-23T06:16:46;95787.34;;;18.89;100.00
20860;BME280;10590;48.154;11.514;2022-07-23T06:21:47;95776.06;;;18.91;100.00
20860;BME280;10590;48.154;11.514;2022-07-23T06:26:50;95745.19;;;18.27;100.00
20860;BME280;10590;48.154;11.514;2022-07-23T06:31:52;95746.38;;;18.56;100.00
20860;BME280;10590;48.154;11.514;2022-07-23T06:36:54;95773.00;;;18.96;100.00
20860;BME280;10590;48.154;11.514;2022-07-23T06:41:57;95808.53;;;19.00;100.00
20860;BME280;10590;48.154;11.514;2022-07-23T06:46:58;95841.59;;;18.91;100.00
20860;BME280;10590;48.154;11.514;2022-07-23T06:52:00;95851.63;;;19.17;100.00
20860;BME280;10590;48.154;11.514;2022-07-23T06:57:04;95855.88;;;19.48;98.80
20860;BME280;10590;48.154;11.514;2022-07-23T07:02:06;95871.84;;;19.43;99.65
20860;BME280;10590;48.154;11.514;2022-07-23T07:07:07;95878.13;;;19.47;100.00
20860;BME280;10590;48.154;11.514;2022-07-23T07:12:10;95861.03;;;19.57;100.00
20860;BME280;10590;48.154;11.514;2022-07-23T07:17:13;95853.03;;;19.71;100.00
20860;BME280;10590;48.154;11.514;2022-07-23T07:22:15;95851.53;;;19.77;100.00
20860;BME280;10590;48.154;11.514;2022-07-23T07:27:21;95840.66;;;19.84;100.00
20860;BME280;10590;48.154;11.514;2022-07-23T07:32:22;95843.06;;;19.90;100.00
20860;BME280;10590;48.154;11.514;2022-07-23T07:37:24;95866.91;;;19.93;100.00
20860;BME280;10590;48.154;11.514;2022-07-23T07:42:27;95866.78;;;19.78;99.67
20860;BME280;10590;48.154;11.514;2022-07-23T07:47:30;95876.56;;;19.83;100.00
20860;BME280;10590;48.154;11.514;2022-07-23T07:52:33;95888.72;;;19.85;99.47
20860;BME280;10590;48.154;11.514;2022-07-23T07:57:38;95890.34;;;19.94;100.00
20860;BME280;10590;48.154;11.514;2022-07-23T08:02:44;95892.78;;;20.02;100.00
20860;BME280;10590;48.154;11.514;2022-07-23T08:07:46;95869.53;;;20.26;98.89
20860;BME280;10590;48.154;11.514;2022-07-23T08:12:51;95867.44;;;20.09;98.79
20860;BME280;10590;48.154;11.514;2022-07-23T08:17:54;95885.81;;;20.12;99.68
20860;BME280;10590;48.154;11.514;2022-07-23T08:22:58;95878.69;;;20.48;94.49
20860;BME280;10590;48.154;11.514;2022-07-23T08:28:03;95874.19;;;20.77;94.64
20860;BME280;10590;48.154;11.514;2022-07-23T08:33:06;95872.81;;;21.12;89.19
20860;BME280;10590;48.154;11.514;2022-07-23T08:38:12;95870.28;;;21.62;85.68
20860;BME280;10590;48.154;11.514;2022-07-23T08:43:18;95875.03;;;21.87;80.00
20860;BME280;10590;48.154;11.514;2022-07-23T08:48:21;95870.38;;;22.44;75.97
20860;BME280;10590;48.154;11.514;2022-07-23T08:53:25;95870.34;;;22.51;75.00
20860;BME280;10590;48.154;11.514;2022-07-23T08:58:29;95894.25;;;22.69;75.06
20860;BME280;10590;48.154;11.514;2022-07-23T09:03:34;95933.88;;;22.78;75.41
20860;BME280;10590;48.154;11.514;2022-07-23T09:08:42;95932.31;;;22.81;76.88
20860;BME280;10590;48.154;11.514;2022-07-23T09:13:47;95937.41;;;22.58;75.42
20860;BME280;10590;48.154;11.514;2022-07-23T09:18:52;95932.69;;;22.87;76.62
20860;BME280;10590;48.154;11.514;2022-07-23T09:23:57;95941.91;;;24.86;66.98
20860;BME280;10590;48.154;11.514;2022-07-23T09:29:04;95937.81;;;27.88;56.62
20860;BME280;10590;48.154;11.514;2022-07-23T09:34:12;95937.38;;;28.10;55.52
20860;BME280;10590;48.154;11.514;2022-07-23T09:39:16;95950.16;;;28.56;51.17
20860;BME280;10590;48.154;11.514;2022-07-23T09:44:24;95942.19;;;30.84;45.46
20860;BME280;10590;48.154;11.514;2022-07-23T09:49:26;95932.69;;;31.42;44.50
20860;BME280;10590;48.154;11.514;2022-07-23T09:54:31;95932.44;;;31.14;43.61
20860;BME280;10590;48.154;11.514;2022-07-23T09:59:41;95926.41;;;30.68;40.67
20860;BME280;10590;48.154;11.514;2022-07-23T10:04:43;95927.72;;;26.48;49.38
20860;BME280;10590;48.154;11.514;2022-07-23T10:09:47;95923.97;;;26.85;49.22
20860;BME280;10590;48.154;11.514;2022-07-23T10:14:52;95928.16;;;26.19;51.33
20860;BME280;10590;48.154;11.514;2022-07-23T10:19:54;95919.09;;;26.93;49.05
20860;BME280;10590;48.154;11.514;2022-07-23T10:25:00;95903.34;;;30.93;39.42
20860;BME280;10590;48.154;11.514;2022-07-23T10:30:10;95905.50;;;30.76;40.48
20860;BME280;10590;48.154;11.514;2022-07-23T10:35:20;95898.72;;;31.12;38.35
20860;BME280;10590;48.154;11.514;2022-07-23T10:40:27;95897.72;;;29.82;40.96
20860;BME280;10590;48.154;11.514;2022-07-23T10:45:35;95882.16;;;28.19;44.96
20860;BME280;10590;48.154;11.514;2022-07-23T10:50:37;95890.22;;;27.37;44.96
20860;BME280;10590;48.154;11.514;2022-07-23T10:55:40;95885.88;;;27.76;45.18
20860;BME280;10590;48.154;11.514;2022-07-23T11:00:43;95888.09;;;28.54;44.49
20860;BME280;10590;48.154;11.514;2022-07-23T11:05:46;95872.41;;;27.38;46.39
20860;BME280;10590;48.154;11.514;2022-07-23T11:10:51;95884.25;;;26.76;47.53
20860;BME280;10590;48.154;11.514;2022-07-23T11:16:23;95888.75;;;26.89;47.63
20860;BME280;10590;48.154;11.514;2022-07-23T11:21:45;95866.88;;;26.28;48.51
20860;BME280;10590;48.154;11.514;2022-07-23T11:26:55;95874.19;;;25.88;49.64
20860;BME280;10590;48.154;11.514;2022-07-23T11:32:00;95878.00;;;25.36;50.87
20860;BME280;10590;48.154;11.514;2022-07-23T11:37:04;95882.88;;;25.25;50.52
20860;BME280;10590;48.154;11.514;2022-07-23T11:42:07;95877.22;;;25.36;52.44
20860;BME280;10590;48.154;11.514;2022-07-23T11:47:10;95875.41;;;25.87;50.30
20860;BME280;10590;48.154;11.514;2022-07-23T11:52:14;95863.97;;;25.54;51.53
20860;BME280;10590;48.154;11.514;2022-07-23T11:57:17;95887.78;;;25.71;52.28
20860;BME280;10590;48.154;11.514;2022-07-23T12:02:22;95871.25;;;25.41;53.00
20860;BME280;10590;48.154;11.514;2022-07-23T12:07:34;95868.00;;;24.78;54.85
20860;BME280;10590;48.154;11.514;2022-07-23T12:12:37;95878.50;;;24.90;55.28
20860;BME280;10590;48.154;11.514;2022-07-23T12:17:42;95876.03;;;24.99;55.10
20860;BME280;10590;48.154;11.514;2022-07-23T12:22:45;95871.50;;;24.82;53.66
20860;BME280;10590;48.154;11.514;2022-07-23T12:27:58;95875.56;;;24.70;55.20
20860;BME280;10590;48.154;11.514;2022-07-23T12:33:02;95872.88;;;24.59;56.48
20860;BME280;10590;48.154;11.514;2022-07-23T12:38:06;95869.16;;;24.80;55.64
20860;BME280;10590;48.154;11.514;2022-07-23T12:43:10;95881.47;;;24.68;56.86
20860;BME280;10590;48.154;11.514;2022-07-23T12:48:18;95873.50;;;24.78;56.35
20860;BME280;10590;48.154;11.514;2022-07-23T12:53:22;95870.78;;;24.74;56.20
20860;BME280;10590;48.154;11.514;2022-07-23T12:58:24;95884.28;;;24.61;56.94
20860;BME280;10590;48.154;11.514;2022-07-23T13:03:36;95874.44;;;25.02;55.35
20860;BME280;10590;48.154;11.514;2022-07-23T13:08:39;95890.56;;;25.03;55.97
20860;BME280;10590;48.154;11.514;2022-07-23T13:13:41;95883.09;;;25.38;54.62
20860;BME280;10590;48.154;11.514;2022-07-23T13:18:44;95886.53;;;24.73;56.13
20860;BME280;10590;48.154;11.514;2022-07-23T13:23:46;95887.47;;;24.56;57.59
20860;BME280;10590;48.154;11.514;2022-07-23T13:28:47;95883.94;;;24.97;57.26
20860;BME280;10590;48.154;11.514;2022-07-23T13:33:52;95884.97;;;24.72;58.08
20860;BME280;10590;48.154;11.514;2022-07-23T13:38:53;95888.63;;;25.99;53.89
20860;BME280;10590;48.154;11.514;2022-07-23T13:43:55;95872.81;;;26.97;52.84
20860;BME280;10590;48.154;11.514;2022-07-23T13:48:58;95877.47;;;26.33;52.96
20860;BME280;10590;48.154;11.514;2022-07-23T13:54:00;95867.88;;;25.26;56.76
20860;BME280;10590;48.154;11.514;2022-07-23T13:59:02;95870.44;;;25.06;57.44
20860;BME280;10590;48.154;11.514;2022-07-23T14:04:06;95874.28;;;24.78;57.66
20860;BME280;10590;48.154;11.514;2022-07-23T14:09:07;95872.13;;;24.55;57.14
20860;BME280;10590;48.154;11.514;2022-07-23T14:14:09;95873.03;;;24.45;58.14
20860;BME280;10590;48.154;11.514;2022-07-23T14:19:12;95862.66;;;24.60;57.19
20860;BME280;10590;48.154;11.514;2022-07-23T14:24:14;95868.28;;;24.87;56.56
20860;BME280;10590;48.154;11.514;2022-07-23T14:29:15;95866.81;;;24.79;56.21
20860;BME280;10590;48.154;11.514;2022-07-23T14:34:18;95863.75;;;25.72;54.66
20860;BME280;10590;48.154;11.514;2022-07-23T14:39:20;95857.59;;;25.61;55.74
20860;BME280;10590;48.154;11.514;2022-07-23T14:44:22;95859.84;;;25.39;55.87
20860;BME280;10590;48.154;11.514;2022-07-23T14:49:25;95849.16;;;27.92;49.24
20860;BME280;10590;48.154;11.514;2022-07-23T14:54:27;95827.34;;;26.78;50.78
20860;BME280;10590;48.154;11.514;2022-07-23T14:59:30;95816.94;;;26.19;53.04
20860;BME280;10590;48.154;11.514;2022-07-23T15:04:33;95828.03;;;25.61;56.27
20860;BME280;10590;48.154;11.514;2022-07-23T15:09:34;95838.56;;;25.39;56.17
20860;BME280;10590;48.154;11.514;2022-07-23T15:14:36;95826.28;;;26.72;52.17
20860;BME280;10590;48.154;11.514;2022-07-23T15:19:39;95830.66;;;27.33;50.86
20860;BME280;10590;48.154;11.514;2022-07-23T15:24:40;95831.88;;;26.68;52.64
20860;BME280;10590;48.154;11.514;2022-07-23T15:29:42;95841.81;;;26.86;51.58
20860;BME280;10590;48.154;11.514;2022-07-23T15:34:45;95854.50;;;27.83;49.04
20860;BME280;10590;48.154;11.514;2022-07-23T15:39:47;95862.75;;;28.35;48.00
20860;BME280;10590;48.154;11.514;2022-07-23T15:44:48;95859.16;;;29.00;46.48
20860;BME280;10590;48.154;11.514;2022-07-23T15:49:51;95857.31;;;28.65;47.55
20860;BME280;10590;48.154;11.514;2022-07-23T15:54:53;95848.06;;;29.29;46.14
20860;BME280;10590;48.154;11.514;2022-07-23T15:59:55;95856.97;;;28.30;47.72
20860;BME280;10590;48.154;11.514;2022-07-23T16:04:58;95854.78;;;28.70;46.59
20860;BME280;10590;48.154;11.514;2022-07-23T16:10:00;95851.28;;;26.65;52.33
20860;BME280;10590;48.154;11.514;2022-07-23T16:15:04;95848.41;;;25.98;53.94
20860;BME280;10590;48.154;11.514;2022-07-23T16:20:08;95848.50;;;25.33;56.49
20860;BME280;10590;48.154;11.514;2022-07-23T16:25:10;95873.59;;;25.08;58.33
20860;BME280;10590;48.154;11.514;2022-07-23T16:30:14;95847.34;;;25.31;57.79
20860;BME280;10590;48.154;11.514;2022-07-23T16:35:17;95848.53;;;25.60;56.33
20860;BME280;10590;48.154;11.514;2022-07-23T16:40:19;95857.38;;;26.06;56.12
20860;BME280;10590;48.154;11.514;2022-07-23T16:45:20;95859.47;;;25.98;56.24
20860;BME280;10590;48.154;11.514;2022-07-23T16:50:23;95855.16;;;25.93;56.65
20860;BME280;10590;48.154;11.514;2022-07-23T16:55:25;95866.00;;;25.81;57.85
20860;BME280;10590;48.154;11.514;2022-07-23T17:00:28;95859.03;;;25.69;57.31
20860;BME280;10590;48.154;11.514;2022-07-23T17:05:31;95855.22;;;25.63;57.28
20860;BME280;10590;48.154;11.514;2022-07-23T17:10:33;95859.47;;;25.67;58.05
20860;BME280;10590;48.154;11.514;2022-07-23T17:15:35;95869.09;;;25.56;58.62
20860;BME280;10590;48.154;11.514;2022-07-23T17:20:42;95868.97;;;25.66;58.42
20860;BME280;10590;48.154;11.514;2022-07-23T17:25:43;95862.03;;;25.55;58.80
20860;BME280;10590;48.154;11.514;2022-07-23T17:30:46;95871.13;;;25.82;58.34
20860;BME280;10590;48.154;11.514;2022-07-23T17:35:49;95866.59;;;25.65;59.00
20860;BME280;10590;48.154;11.514;2022-07-23T17:40:52;95863.28;;;25.46;59.75
20860;BME280;10590;48.154;11.514;2022-07-23T17:45:54;95871.13;;;25.17;60.79
20860;BME280;10590;48.154;11.514;2022-07-23T17:50:59;95876.41;;;25.01;61.63
20860;BME280;10590;48.154;11.514;2022-07-23T17:56:02;95873.44;;;24.85;62.46
20860;BME280;10590;48.154;11.514;2022-07-23T18:01:05;95880.34;;;24.62;63.66
20860;BME280;10590;48.154;11.514;2022-07-23T18:06:08;95885.81;;;24.66;63.42
20860;BME280;10590;48.154;11.514;2022-07-23T18:11:10;95895.34;;;24.58;64.23
20860;BME280;10590;48.154;11.514;2022-07-23T18:16:12;95893.28;;;24.69;64.14
20860;BME280;10590;48.154;11.514;2022-07-23T18:21:16;95904.66;;;24.71;63.97
20860;BME280;10590;48.154;11.514;2022-07-23T18:26:18;95901.03;;;24.81;63.63
20860;BME280;10590;48.154;11.514;2022-07-23T18:31:20;95912.25;;;24.56;64.65
20860;BME280;10590;48.154;11.514;2022-07-23T18:36:23;95923.41;;;24.42;65.10
20860;BME280;10590;48.154;11.514;2022-07-23T18:41:24;95918.72;;;24.39;65.65
20860;BME280;10590;48.154;11.514;2022-07-23T18:46:26;95916.69;;;24.46;65.28
20860;BME280;10590;48.154;11.514;2022-07-23T18:51:31;95927.03;;;24.24;65.88
20860;BME280;10590;48.154;11.514;2022-07-23T18:56:33;95935.44;;;24.07;66.99
20860;BME280;10590;48.154;11.514;2022-07-23T19:01:35;95940.56;;;24.01;67.60
20860;BME280;10590;48.154;11.514;2022-07-23T19:06:38;95952.88;;;23.82;68.77
20860;BME280;10590;48.154;11.514;2022-07-23T19:11:40;95966.25;;;23.69;69.60
20860;BME280;10590;48.154;11.514;2022-07-23T19:16:42;95969.06;;;23.59;69.60
20860;BME280;10590;48.154;11.514;2022-07-23T19:21:45;95979.31;;;23.44;70.94
20860;BME280;10590;48.154;11.514;2022-07-23T19:26:47;95978.13;;;23.45;69.60
20860;BME280;10590;48.154;11.514;2022-07-23T19:31:49;95989.53;;;23.36;69.13
20860;BME280;10590;48.154;11.514;2022-07-23T19:36:52;95994.25;;;23.39;68.55
20860;BME280;10590;48.154;11.514;2022-07-23T19:41:54;95996.25;;;23.28;68.42
20860;BME280;10590;48.154;11.514;2022-07-23T19:46:55;95999.34;;;23.30;68.20
20860;BME280;10590;48.154;11.514;2022-07-23T19:51:58;96002.94;;;23.23;67.78
20860;BME280;10590;48.154;11.514;2022-07-23T19:57:00;96012.72;;;23.24;66.60
20860;BME280;10590;48.154;11.514;2022-07-23T20:02:02;96015.88;;;23.26;66.41
20860;BME280;10590;48.154;11.514;2022-07-23T20:07:08;96006.06;;;23.22;66.24
20860;BME280;10590;48.154;11.514;2022-07-23T20:12:11;96019.00;;;23.21;65.70
20860;BME280;10590;48.154;11.514;2022-07-23T20:17:16;96021.75;;;23.21;65.65
20860;BME280;10590;48.154;11.514;2022-07-23T20:22:19;96021.81;;;22.96;67.29
20860;BME280;10590;48.154;11.514;2022-07-23T20:27:20;96019.84;;;22.93;66.64
20860;BME280;10590;48.154;11.514;2022-07-23T20:32:22;96023.00;;;22.95;66.50
20860;BME280;10590;48.154;11.514;2022-07-23T20:37:25;96025.72;;;22.92;65.99
20860;BME280;10590;48.154;11.514;2022-07-23T20:42:26;96028.44;;;22.99;66.06
20860;BME280;10590;48.154;11.514;2022-07-23T20:47:28;96033.56;;;23.04;66.41
20860;BME280;10590;48.154;11.514;2022-07-23T20:52:31;96028.06;;;22.93;66.58
20860;BME280;10590;48.154;11.514;2022-07-23T20:57:33;96032.75;;;22.61;68.94
20860;BME280;10590;48.154;11.514;2022-07-23T21:02:34;96041.00;;;22.68;68.39
20860;BME280;10590;48.154;11.514;2022-07-23T21:07:38;96037.09;;;22.79;68.24
20860;BME280;10590;48.154;11.514;2022-07-23T21:12:41;96044.53;;;22.75;68.67
20860;BME280;10590;48.154;11.514;2022-07-23T21:17:42;96040.59;;;22.73;69.28
20860;BME280;10590;48.154;11.514;2022-07-23T21:22:45;96038.63;;;22.59;69.31
20860;BME280;10590;48.154;11.514;2022-07-23T21:27:47;96040.56;;;22.55;69.70
20860;BME280;10590;48.154;11.514;2022-07-23T21:32:48;96048.41;;;22.42;70.54
20860;BME280;10590;48.154;11.514;2022-07-23T21:42:53;96032.28;;;22.23;71.85
20860;BME280;10590;48.154;11.514;2022-07-23T21:47:57;96039.72;;;22.22;72.52
20860;BME280;10590;48.154;11.514;2022-07-23T21:53:00;96033.47;;;22.25;72.20
20860;BME280;10590;48.154;11.514;2022-07-23T21:58:02;96037.38;;;22.14;72.71
20860;BME280;10590;48.154;11.514;2022-07-23T22:03:04;96049.06;;;22.07;73.64
20860;BME280;10590;48.154;11.514;2022-07-23T22:08:07;96043.53;;;22.00;74.26
20860;BME280;10590;48.154;11.514;2022-07-23T22:13:09;96039.72;;;22.15;73.66
20860;BME280;10590;48.154;11.514;2022-07-23T22:18:11;96036.59;;;22.24;73.01
20860;BME280;10590;48.154;11.514;2022-07-23T22:23:16;96042.88;;;22.24;73.31
20860;BME280;10590;48.154;11.514;2022-07-23T22:28:24;96040.06;;;22.10;75.11
20860;BME280;10590;48.154;11.514;2022-07-23T22:33:26;96033.38;;;22.04;75.89
20860;BME280;10590;48.154;11.514;2022-07-23T22:38:29;96037.69;;;22.05;75.54
20860;BME280;10590;48.154;11.514;2022-07-23T22:43:32;96030.97;;;21.88;76.86
20860;BME280;10590;48.154;11.514;2022-07-23T22:48:34;96029.47;;;22.05;75.09
20860;BME280;10590;48.154;11.514;2022-07-23T22:53:40;96024.81;;;22.20;73.53
20860;BME280;10590;48.154;11.514;2022-07-23T22:58:42;96042.72;;;21.89;75.34
20860;BME280;10590;48.154;11.514;2022-07-23T23:03:43;96045.38;;;21.67;77.33
20860;BME280;10590;48.154;11.514;2022-07-23T23:08:46;96036.44;;;21.77;76.02
20860;BME280;10590;48.154;11.514;2022-07-23T23:13:48;96047.75;;;21.72;76.16
20860;BME280;10590;48.154;11.514;2022-07-23T23:18:50;96046.91;;;21.61;76.54
20860;BME280;10590;48.154;11.514;2022-07-23T23:23:53;96047.19;;;21.45;78.64
20860;BME280;10590;48.154;11.514;2022-07-23T23:28:54;96048.34;;;21.37;78.40
20860;BME280;10590;48.154;11.514;2022-07-23T23:33:56;96054.59;;;21.34;78.78
20860;BME280;10590;48.154;11.514;2022-07-23T23:38:59;96058.84;;;21.31;79.36
20860;BME280;10590;48.154;11.514;2022-07-23T23:44:01;96057.69;;;21.32;79.63
20860;BME280;10590;48.154;11.514;2022-07-23T23:49:02;96054.59;;;21.38;78.78
20860;BME280;10590;48.154;11.514;2022-07-23T23:54:05;96058.22;;;21.01;81.45
20860;BME280;10590;48.154;11.514;2022-07-23T23:59:07;96053.75;;;21.30;79.91
